createdAt,value
2019-02-17T00:01:17.060Z,72.80
2019-02-17T00:03:44.150Z,72.80
2019-02-17T00:06:11.086Z,72.70
2019-02-17T00:08:38.090Z,72.80
2019-02-17T00:11:05.044Z,73.20
2019-02-17T00:13:32.007Z,73.60
2019-02-17T00:15:58.968Z,74.70
2019-02-17T00:18:25.913Z,74.20
2019-02-17T00:20:52.890Z,74.30
2019-02-17T00:23:19.847Z,74.40
2019-02-17T00:25:46.863Z,74.70
2019-02-17T00:28:13.840Z,74.80
2019-02-17T00:30:40.798Z,75.10
2019-02-17T00:33:07.748Z,75.80
2019-02-17T00:35:34.697Z,75.90
2019-02-17T00:38:01.652Z,76.20
2019-02-17T00:40:28.615Z,76.10
2019-02-17T00:42:56.889Z,76.20
2019-02-17T00:45:23.885Z,76.40
2019-02-17T00:47:50.847Z,76.70
2019-02-17T00:50:17.791Z,76.90
2019-02-17T00:52:44.772Z,77.10
2019-02-17T00:55:11.737Z,77.00
2019-02-17T00:57:38.697Z,77.00
2019-02-17T01:00:06.054Z,77.30
2019-02-17T01:02:32.997Z,77.50
2019-02-17T01:04:59.947Z,77.70
2019-02-17T01:07:26.933Z,78.40
2019-02-17T01:09:53.921Z,78.10
2019-02-17T01:12:20.877Z,78.30
2019-02-17T01:14:47.883Z,78.70
2019-02-17T01:17:14.836Z,78.90
2019-02-17T01:19:41.833Z,78.90
2019-02-17T01:22:08.817Z,79.00
2019-02-17T01:24:35.857Z,79.10
2019-02-17T01:27:02.845Z,78.90
2019-02-17T01:29:29.817Z,78.80
2019-02-17T01:31:56.756Z,79.00
2019-02-17T01:34:23.700Z,78.80
2019-02-17T01:36:50.675Z,78.30
2019-02-17T01:39:17.623Z,78.30
2019-02-17T01:41:44.580Z,78.60
2019-02-17T01:44:13.151Z,78.60
2019-02-17T01:46:40.088Z,78.70
2019-02-17T01:49:07.031Z,78.80
2019-02-17T01:51:34.000Z,79.40
2019-02-17T01:54:00.941Z,79.40
2019-02-17T01:56:27.881Z,79.20
2019-02-17T01:58:54.844Z,79.10
2019-02-17T02:01:21.789Z,79.00
2019-02-17T02:03:48.725Z,79.30
2019-02-17T02:06:15.717Z,79.20
2019-02-17T02:08:42.669Z,79.10
2019-02-17T02:11:09.765Z,79.00
2019-02-17T02:13:36.703Z,78.70
2019-02-17T02:16:03.668Z,78.60
2019-02-17T02:18:30.664Z,78.70
2019-02-17T02:20:57.653Z,79.40
2019-02-17T02:23:24.591Z,79.00
2019-02-17T02:25:51.535Z,79.30
2019-02-17T02:28:18.471Z,80.10
2019-02-17T02:30:45.425Z,79.80
2019-02-17T02:33:12.378Z,79.90
2019-02-17T02:35:39.353Z,80.80
2019-02-17T02:38:06.293Z,80.30
2019-02-17T02:40:33.230Z,79.60
2019-02-17T02:43:00.189Z,80.60
2019-02-17T02:45:28.436Z,81.20
2019-02-17T02:47:55.449Z,81.50
2019-02-17T02:50:22.361Z,81.60
2019-02-17T02:52:49.325Z,81.50
2019-02-17T02:55:16.268Z,81.20
2019-02-17T02:57:43.241Z,81.30
2019-02-17T03:00:10.241Z,81.20
2019-02-17T03:02:37.195Z,81.30
2019-02-17T03:05:06.443Z,81.70
2019-02-17T03:07:33.405Z,81.50
2019-02-17T03:10:00.510Z,82.40
2019-02-17T03:12:27.468Z,82.50
2019-02-17T03:14:54.413Z,82.50
2019-02-17T03:17:21.339Z,83.10
2019-02-17T03:19:48.291Z,83.60
2019-02-17T03:22:15.220Z,83.80
2019-02-17T03:24:42.221Z,84.00
2019-02-17T03:27:09.183Z,84.10
2019-02-17T03:29:36.187Z,83.70
2019-02-17T03:32:03.165Z,83.50
2019-02-17T03:34:30.099Z,84.50
2019-02-17T03:36:57.048Z,83.50
2019-02-17T03:39:24.045Z,83.50
2019-02-17T03:41:51.011Z,83.30
2019-02-17T03:44:17.989Z,83.00
2019-02-17T03:46:45.371Z,82.90
2019-02-17T03:49:12.347Z,83.40
2019-02-17T03:51:39.292Z,83.50
2019-02-17T03:54:06.249Z,83.50
2019-02-17T03:56:33.209Z,83.90
2019-02-17T03:59:00.169Z,84.80
2019-02-17T04:01:27.112Z,84.10
2019-02-17T04:03:54.099Z,84.20
2019-02-17T04:06:21.041Z,84.30
2019-02-17T04:08:47.988Z,84.70
2019-02-17T04:11:14.976Z,85.20
2019-02-17T04:13:41.951Z,85.30
2019-02-17T04:16:08.902Z,85.40
2019-02-17T04:18:35.883Z,85.70
2019-02-17T04:21:02.835Z,86.00
2019-02-17T04:23:31.608Z,86.30
2019-02-17T04:25:56.738Z,86.60
2019-02-17T04:28:23.719Z,86.70
2019-02-17T04:30:50.665Z,87.00
2019-02-17T04:33:17.744Z,86.90
2019-02-17T04:35:44.708Z,87.30
2019-02-17T04:38:11.644Z,87.80
2019-02-17T04:40:38.610Z,87.60
2019-02-17T04:43:05.549Z,87.60
2019-02-17T04:45:32.495Z,87.70
2019-02-17T04:47:59.771Z,88.00
2019-02-17T04:50:26.716Z,88.70
2019-02-17T04:52:53.662Z,87.80
2019-02-17T04:55:20.634Z,87.80
2019-02-17T04:57:47.562Z,87.90
2019-02-17T05:00:14.541Z,88.30
2019-02-17T05:02:41.498Z,88.30
2019-02-17T05:05:08.438Z,88.30
2019-02-17T05:07:35.359Z,88.50
2019-02-17T05:10:02.355Z,88.40
2019-02-17T05:12:29.304Z,88.40
2019-02-17T05:14:56.245Z,88.00
2019-02-17T05:17:23.213Z,88.10
2019-02-17T05:19:50.149Z,87.80
2019-02-17T05:22:17.083Z,88.00
2019-02-17T05:24:44.037Z,87.70
2019-02-17T05:27:10.974Z,87.70
2019-02-17T05:29:37.917Z,87.70
2019-02-17T05:32:04.884Z,87.80
2019-02-17T05:34:31.846Z,88.00
2019-02-17T05:36:58.779Z,87.90
2019-02-17T05:39:25.760Z,88.70
2019-02-17T05:41:52.708Z,88.70
2019-02-17T05:44:19.655Z,88.90
2019-02-17T05:46:46.612Z,88.90
2019-02-17T05:49:15.177Z,89.00
2019-02-17T05:51:42.144Z,89.00
2019-02-17T05:54:09.090Z,89.20
2019-02-17T05:56:36.043Z,89.30
2019-02-17T05:59:03.023Z,89.30
2019-02-17T06:01:29.972Z,89.50
2019-02-17T06:03:56.903Z,89.70
2019-02-17T06:06:23.844Z,90.00
2019-02-17T06:08:50.853Z,90.10
2019-02-17T06:11:17.797Z,90.00
2019-02-17T06:13:44.740Z,90.00
2019-02-17T06:16:11.692Z,90.00
2019-02-17T06:18:38.632Z,90.00
2019-02-17T06:21:05.571Z,89.90
2019-02-17T06:23:32.518Z,89.50
2019-02-17T06:25:59.484Z,89.20
2019-02-17T06:28:26.411Z,89.00
2019-02-17T06:30:53.364Z,88.90
2019-02-17T06:33:20.320Z,89.00
2019-02-17T06:35:47.260Z,89.20
2019-02-17T06:38:14.277Z,89.60
2019-02-17T06:40:41.259Z,89.40
2019-02-17T06:43:08.190Z,89.40
2019-02-17T06:45:35.167Z,89.50
2019-02-17T06:48:02.110Z,89.00
2019-02-17T06:50:29.259Z,89.20
2019-02-17T06:52:56.232Z,89.10
2019-02-17T06:55:37.912Z,89.50
2019-02-17T06:58:04.881Z,89.60
2019-02-17T07:00:34.172Z,89.60
2019-02-17T07:03:01.130Z,89.90
2019-02-17T07:05:34.858Z,89.70
2019-02-17T07:08:01.772Z,89.40
2019-02-17T07:10:28.703Z,89.10
2019-02-17T07:12:57.703Z,89.10
2019-02-17T07:15:24.649Z,88.80
2019-02-17T07:17:51.587Z,88.80
2019-02-17T07:20:18.545Z,88.40
2019-02-17T07:22:45.491Z,88.20
2019-02-17T07:25:12.430Z,88.60
2019-02-17T07:27:39.388Z,87.50
2019-02-17T07:30:06.398Z,87.30
2019-02-17T07:32:33.343Z,87.30
2019-02-17T07:35:00.711Z,87.10
2019-02-17T07:37:33.402Z,87.00
2019-02-17T07:39:54.599Z,86.50
2019-02-17T07:42:21.554Z,86.10
2019-02-17T07:44:48.508Z,85.20
2019-02-17T07:47:15.476Z,84.30
2019-02-17T07:49:42.436Z,83.20
2019-02-17T07:52:10.757Z,82.10
2019-02-17T07:54:37.696Z,81.50
2019-02-17T07:57:04.668Z,80.40
2019-02-17T07:59:31.612Z,79.30
2019-02-17T08:01:58.541Z,78.50
2019-02-17T08:04:25.491Z,77.60
2019-02-17T08:06:52.463Z,76.20
2019-02-17T08:09:19.439Z,75.20
2019-02-17T08:11:46.400Z,74.80
2019-02-17T08:14:13.431Z,74.30
2019-02-17T08:16:40.491Z,73.40
2019-02-17T08:19:07.487Z,72.50
2019-02-17T08:21:34.426Z,71.40
2019-02-17T08:24:01.358Z,70.70
2019-02-17T08:26:28.311Z,69.90
2019-02-17T08:28:55.270Z,68.80
2019-02-17T08:31:22.226Z,68.20
2019-02-17T08:33:49.185Z,67.80
2019-02-17T08:36:16.122Z,67.10
2019-02-17T08:38:43.064Z,66.50
2019-02-17T08:41:10.039Z,65.70
2019-02-17T08:43:36.995Z,64.70
2019-02-17T08:46:03.976Z,63.80
2019-02-17T08:48:30.952Z,61.90
2019-02-17T08:50:57.928Z,61.80
2019-02-17T08:53:25.416Z,60.10
2019-02-17T08:55:52.379Z,58.70
2019-02-17T08:58:19.312Z,57.50
2019-02-17T09:00:46.266Z,55.30
2019-02-17T09:03:13.208Z,52.60
2019-02-17T09:05:44.229Z,48.90
2019-02-17T09:08:07.698Z,45.70
2019-02-17T09:10:34.696Z,43.40
2019-02-17T09:13:01.649Z,41.80
2019-02-17T09:15:28.579Z,39.70
2019-02-17T09:17:55.552Z,37.50
2019-02-17T09:20:22.484Z,36.80
2019-02-17T09:22:49.455Z,35.70
2019-02-17T09:25:16.456Z,34.90
2019-02-17T09:27:43.402Z,33.60
2019-02-17T09:30:13.133Z,31.40
2019-02-17T09:32:40.085Z,30.10
2019-02-17T09:35:07.047Z,29.50
2019-02-17T09:37:33.979Z,29.10
2019-02-17T09:40:00.953Z,28.50
2019-02-17T09:42:27.903Z,27.30
2019-02-17T09:44:54.875Z,27.10
2019-02-17T09:47:21.850Z,26.70
2019-02-17T09:49:48.820Z,26.70
2019-02-17T09:52:15.988Z,26.40
2019-02-17T09:54:45.159Z,27.00
2019-02-17T09:57:12.107Z,27.30
2019-02-17T09:59:39.329Z,27.10
2019-02-17T10:02:06.281Z,27.00
2019-02-17T10:04:35.788Z,27.10
2019-02-17T10:07:02.749Z,26.30
2019-02-17T10:09:29.947Z,25.90
2019-02-17T10:11:56.899Z,25.60
2019-02-17T10:14:23.840Z,25.00
2019-02-17T10:16:50.809Z,24.80
2019-02-17T10:19:17.759Z,25.10
2019-02-17T10:21:44.726Z,25.40
2019-02-17T10:24:11.716Z,24.30
2019-02-17T10:26:39.514Z,24.40
2019-02-17T10:29:06.387Z,23.70
2019-02-17T10:31:33.352Z,22.90
2019-02-17T10:34:00.293Z,22.80
2019-02-17T10:36:27.262Z,22.30
2019-02-17T10:38:54.226Z,22.80
2019-02-17T10:41:21.167Z,22.10
2019-02-17T10:43:48.143Z,22.40
2019-02-17T10:46:15.124Z,22.20
2019-02-17T10:48:42.122Z,22.00
2019-02-17T10:51:09.047Z,22.00
2019-02-17T10:53:36.025Z,21.00
2019-02-17T10:56:04.652Z,20.70
2019-02-17T10:58:31.600Z,20.30
2019-02-17T11:00:58.561Z,19.70
2019-02-17T11:03:25.564Z,19.80
2019-02-17T11:05:52.524Z,20.40
2019-02-17T11:08:19.512Z,19.80
2019-02-17T11:10:46.462Z,19.50
2019-02-17T11:13:13.395Z,19.60
2019-02-17T11:15:40.358Z,19.10
2019-02-17T11:18:07.284Z,19.80
2019-02-17T11:20:34.216Z,20.30
2019-02-17T11:23:01.188Z,20.10
2019-02-17T11:25:28.109Z,21.10
2019-02-17T11:27:55.060Z,20.00
2019-02-17T11:30:22.047Z,19.20
2019-02-17T11:32:57.520Z,19.10
2019-02-17T11:35:15.944Z,19.30
2019-02-17T11:37:45.009Z,19.20
2019-02-17T11:40:10.203Z,18.20
2019-02-17T11:42:37.132Z,18.30
2019-02-17T11:45:05.572Z,18.50
2019-02-17T11:47:32.512Z,18.20
2019-02-17T11:49:59.442Z,18.10
2019-02-17T11:52:26.412Z,18.40
2019-02-17T11:54:53.373Z,18.30
2019-02-17T11:57:21.535Z,17.90
2019-02-17T11:59:48.492Z,17.70
2019-02-17T12:02:24.610Z,18.00
2019-02-17T12:04:42.383Z,17.90
2019-02-17T12:07:09.453Z,18.30
2019-02-17T12:09:36.404Z,18.80
2019-02-17T12:12:03.344Z,18.40
2019-02-17T12:14:31.826Z,18.20
2019-02-17T12:16:58.764Z,18.00
2019-02-17T12:19:25.763Z,18.50
2019-02-17T12:21:57.133Z,17.30
2019-02-17T12:27:11.139Z,18.80
2019-02-17T12:29:50.618Z,18.70
2019-02-17T12:32:17.581Z,18.50
2019-02-17T12:34:44.569Z,18.70
2019-02-17T12:37:11.511Z,19.30
2019-02-17T12:39:38.456Z,19.60
2019-02-17T12:42:05.418Z,20.50
2019-02-17T12:44:32.366Z,20.40
2019-02-17T12:46:59.333Z,20.70
2019-02-17T12:49:26.514Z,21.40
2019-02-17T12:51:53.572Z,21.50
2019-02-17T12:54:28.891Z,21.80
2019-02-17T12:56:47.993Z,22.00
2019-02-17T12:59:15.359Z,23.10
2019-02-17T13:01:42.355Z,23.60
2019-02-17T13:04:09.331Z,24.50
2019-02-17T13:06:36.391Z,24.60
2019-02-17T13:09:05.099Z,24.70
2019-02-17T13:11:32.029Z,24.10
2019-02-17T13:13:58.967Z,24.20
2019-02-17T13:16:25.929Z,24.90
2019-02-17T13:18:52.884Z,25.20
2019-02-17T13:21:19.826Z,25.80
2019-02-17T13:23:47.049Z,25.70
2019-02-17T13:26:13.783Z,25.70
2019-02-17T13:28:40.724Z,26.30
2019-02-17T13:31:07.677Z,26.10
2019-02-17T13:33:39.301Z,26.10
2019-02-17T13:36:01.584Z,26.50
2019-02-17T13:38:28.564Z,26.70
2019-02-17T13:40:55.764Z,26.90
2019-02-17T13:43:22.768Z,26.30
2019-02-17T13:45:49.812Z,27.10
2019-02-17T13:48:17.221Z,27.00
2019-02-17T13:50:44.175Z,26.30
2019-02-17T13:53:12.126Z,26.50
2019-02-17T13:55:38.090Z,26.90
2019-02-17T13:58:05.035Z,26.80
2019-02-17T14:00:32.429Z,26.60
2019-02-17T14:02:59.376Z,26.90
2019-02-17T14:05:26.371Z,26.80
2019-02-17T14:07:53.336Z,26.80
2019-02-17T14:10:20.285Z,26.70
2019-02-17T14:12:47.232Z,26.40
2019-02-17T14:15:14.265Z,25.90
2019-02-17T14:17:41.209Z,26.10
2019-02-17T14:20:08.889Z,25.30
2019-02-17T14:22:35.843Z,25.80
2019-02-17T14:25:03.215Z,25.20
2019-02-17T14:27:30.143Z,25.10
2019-02-17T14:29:57.092Z,25.70
2019-02-17T14:32:24.039Z,25.30
2019-02-17T14:34:50.997Z,24.80
2019-02-17T14:37:17.947Z,24.00
2019-02-17T14:39:44.892Z,24.70
2019-02-17T14:42:11.835Z,24.30
2019-02-17T14:44:38.807Z,24.80
2019-02-17T14:47:05.752Z,23.70
2019-02-17T14:49:32.692Z,23.30
2019-02-17T14:51:59.644Z,24.20
2019-02-17T14:54:26.581Z,23.90
2019-02-17T14:56:53.507Z,24.20
2019-02-17T14:59:20.465Z,24.30
2019-02-17T15:01:48.107Z,24.60
2019-02-17T15:04:15.015Z,25.10
2019-02-17T15:06:41.972Z,25.20
2019-02-17T15:09:08.947Z,25.70
2019-02-17T15:11:35.925Z,25.40
2019-02-17T15:14:03.260Z,25.50
2019-02-17T15:16:30.209Z,26.20
2019-02-17T15:18:57.144Z,26.30
2019-02-17T15:21:24.119Z,25.70
2019-02-17T15:23:51.081Z,26.30
2019-02-17T15:26:18.040Z,25.80
2019-02-17T15:28:50.927Z,26.10
2019-02-17T15:31:11.959Z,25.60
2019-02-17T15:33:38.968Z,26.60
2019-02-17T15:36:05.857Z,27.90
2019-02-17T15:38:32.809Z,28.30
2019-02-17T15:40:59.818Z,29.00
2019-02-17T15:43:26.708Z,29.10
2019-02-17T15:45:53.692Z,30.00
2019-02-17T15:48:20.643Z,28.40
2019-02-17T15:50:47.608Z,28.40
2019-02-17T15:53:14.556Z,28.20
2019-02-17T15:55:41.493Z,29.00
2019-02-17T15:58:08.448Z,27.30
2019-02-17T16:00:35.457Z,27.40
2019-02-17T16:03:02.849Z,26.60
2019-02-17T16:05:29.813Z,27.10
2019-02-17T16:07:57.436Z,27.10
2019-02-17T16:10:24.375Z,27.00
2019-02-17T16:12:51.340Z,26.40
2019-02-17T16:15:18.294Z,26.10
2019-02-17T16:17:45.269Z,26.60
2019-02-17T16:20:12.654Z,27.00
2019-02-17T16:22:39.623Z,27.20
2019-02-17T16:25:06.678Z,27.60
2019-02-17T16:27:33.639Z,27.80
2019-02-17T16:30:00.566Z,28.50
2019-02-17T16:32:27.516Z,28.20
2019-02-17T16:34:54.468Z,28.10
2019-02-17T16:37:21.419Z,28.50
2019-02-17T16:39:48.446Z,28.80
2019-02-17T16:42:15.419Z,29.00
2019-02-17T16:44:42.371Z,29.40
2019-02-17T16:47:09.333Z,29.70
2019-02-17T16:49:36.284Z,30.10
2019-02-17T16:52:03.281Z,30.40
2019-02-17T16:54:30.218Z,30.50
2019-02-17T16:56:57.194Z,30.70
2019-02-17T16:59:24.144Z,31.00
2019-02-17T17:01:51.092Z,31.10
2019-02-17T17:04:18.629Z,31.30
2019-02-17T17:06:45.568Z,31.50
2019-02-17T17:09:12.552Z,32.10
2019-02-17T17:11:39.523Z,33.30
2019-02-17T17:14:08.959Z,33.20
2019-02-17T17:16:33.455Z,33.10
2019-02-17T17:19:00.420Z,33.70
2019-02-17T17:21:27.368Z,34.30
2019-02-17T17:23:54.317Z,34.60
2019-02-17T17:26:21.334Z,34.60
2019-02-17T17:28:48.315Z,34.50
2019-02-17T17:31:15.384Z,35.50
2019-02-17T17:33:42.369Z,35.50
2019-02-17T17:36:09.310Z,35.60
2019-02-17T17:38:36.265Z,35.80
2019-02-17T17:41:03.241Z,36.10
2019-02-17T17:43:30.172Z,36.30
2019-02-17T17:45:57.107Z,36.00
2019-02-17T17:48:24.085Z,36.30
2019-02-17T17:50:51.025Z,36.50
2019-02-17T17:53:18.000Z,36.90
2019-02-17T17:55:44.968Z,37.00
2019-02-17T17:58:11.949Z,37.20
2019-02-17T18:00:38.885Z,38.00
2019-02-17T18:03:05.835Z,38.40
2019-02-17T18:05:33.101Z,38.90
2019-02-17T18:08:00.044Z,39.10
2019-02-17T18:10:27.007Z,38.50
2019-02-17T18:12:54.188Z,37.70
2019-02-17T18:15:20.919Z,38.70
2019-02-17T18:17:54.237Z,39.00
2019-02-17T18:20:14.881Z,39.20
2019-02-17T18:22:41.841Z,42.30
2019-02-17T18:25:08.965Z,43.10
2019-02-17T18:27:35.918Z,43.30
2019-02-17T18:30:02.947Z,43.10
2019-02-17T18:32:29.913Z,43.90
2019-02-17T18:34:56.860Z,43.80
2019-02-17T18:37:23.832Z,43.70
2019-02-17T18:39:50.824Z,43.40
2019-02-17T18:42:17.806Z,42.60
2019-02-17T18:44:44.740Z,43.10
2019-02-17T18:47:11.700Z,42.70
2019-02-17T18:49:38.644Z,42.50
2019-02-17T18:52:05.582Z,42.10
2019-02-17T18:54:35.797Z,42.10
2019-02-17T18:57:08.169Z,41.90
2019-02-17T18:59:29.695Z,42.10
2019-02-17T19:01:56.662Z,42.50
2019-02-17T19:04:23.632Z,42.20
2019-02-17T19:06:51.148Z,43.30
2019-02-17T19:09:18.133Z,43.80
2019-02-17T19:11:45.093Z,44.20
2019-02-17T19:14:12.040Z,44.80
2019-02-17T19:16:38.995Z,45.40
2019-02-17T19:19:05.977Z,45.80
2019-02-17T19:21:32.953Z,46.20
2019-02-17T19:23:59.979Z,46.80
2019-02-17T19:26:26.918Z,47.10
2019-02-17T19:28:53.891Z,47.40
2019-02-17T19:31:20.867Z,48.50
2019-02-17T19:33:47.801Z,49.40
2019-02-17T19:36:14.748Z,49.30
2019-02-17T19:38:41.736Z,49.20
2019-02-17T19:41:08.688Z,48.80
2019-02-17T19:43:35.636Z,48.80
2019-02-17T19:46:02.644Z,48.90
2019-02-17T19:48:29.615Z,48.70
2019-02-17T19:50:56.656Z,49.10
2019-02-17T19:53:23.665Z,49.80
2019-02-17T19:55:50.627Z,49.90
2019-02-17T19:58:17.618Z,50.20
2019-02-17T20:00:44.630Z,50.50
2019-02-17T20:03:33.161Z,50.80
2019-02-17T20:06:01.832Z,51.10
2019-02-17T20:08:29.230Z,51.30
2019-02-17T20:10:56.280Z,51.60
2019-02-17T20:13:23.264Z,51.80
2019-02-17T20:15:50.214Z,51.80
2019-02-17T20:18:17.156Z,52.60
2019-02-17T20:24:22.204Z,52.30
2019-02-17T20:26:49.202Z,52.50
2019-02-17T20:29:16.187Z,53.20
2019-02-17T20:31:43.146Z,52.80
2019-02-17T20:34:10.111Z,52.80
2019-02-17T20:36:37.104Z,53.00
2019-02-17T20:39:05.121Z,52.70
2019-02-17T20:41:32.299Z,52.90
2019-02-17T20:43:59.625Z,52.90
2019-02-17T20:46:26.600Z,52.90
2019-02-17T20:48:54.336Z,53.00
2019-02-17T20:51:21.359Z,53.00
2019-02-17T20:53:48.345Z,53.20
2019-02-17T20:56:15.332Z,53.20
2019-02-17T20:58:42.400Z,53.30
2019-02-17T21:01:09.445Z,53.30
2019-02-17T21:03:40.204Z,53.50
2019-02-17T21:06:12.890Z,53.80
2019-02-17T21:08:47.564Z,54.20
2019-02-17T21:11:24.893Z,54.00
2019-02-17T21:13:52.133Z,54.40
2019-02-17T21:16:19.425Z,54.50
2019-02-17T21:18:46.429Z,54.70
2019-02-17T21:21:18.153Z,54.90
2019-02-17T21:23:48.779Z,55.10
2019-02-17T21:26:15.731Z,55.50
2019-02-17T21:28:42.737Z,55.90
2019-02-17T21:31:09.728Z,56.20
2019-02-17T21:33:36.883Z,56.40
2019-02-17T21:36:03.851Z,56.60
2019-02-17T21:38:30.957Z,56.70
2019-02-17T21:40:57.904Z,57.10
2019-02-17T21:43:24.893Z,57.10
2019-02-17T21:46:07.984Z,57.90
2019-02-17T21:48:35.076Z,56.40
2019-02-17T21:51:02.053Z,57.70
2019-02-17T21:53:29.065Z,58.10
2019-02-17T21:55:56.635Z,58.30
2019-02-17T21:58:23.576Z,58.30
2019-02-17T22:00:50.504Z,59.20
2019-02-17T22:03:17.954Z,59.50
2019-02-17T22:05:44.947Z,59.80
2019-02-17T22:08:11.987Z,59.90
2019-02-17T22:10:39.860Z,60.20
2019-02-17T22:13:06.928Z,60.40
2019-02-17T22:15:33.870Z,60.70
2019-02-17T22:18:00.896Z,61.20
2019-02-17T22:20:28.194Z,61.40
2019-02-17T22:22:55.181Z,61.50
2019-02-17T22:25:22.189Z,61.50
2019-02-17T22:27:49.177Z,61.50
2019-02-17T22:30:16.135Z,61.30
2019-02-17T22:32:43.116Z,61.30
2019-02-17T22:35:10.097Z,61.70
2019-02-17T22:37:37.053Z,62.10
2019-02-17T22:40:04.357Z,62.30
2019-02-17T22:42:31.335Z,62.70
2019-02-17T22:44:58.281Z,63.20
2019-02-17T22:47:25.298Z,63.40
2019-02-17T22:49:52.232Z,63.60
2019-02-17T22:52:19.201Z,63.80
2019-02-17T22:54:46.175Z,63.80
2019-02-17T22:57:13.123Z,64.00
2019-02-17T22:59:40.072Z,64.10
2019-02-17T23:02:07.024Z,63.80
2019-02-17T23:04:33.997Z,64.30
2019-02-17T23:07:00.931Z,64.60
2019-02-17T23:09:27.897Z,65.20
2019-02-17T23:11:56.191Z,65.30
2019-02-17T23:14:23.144Z,65.10
2019-02-17T23:16:50.106Z,65.50
2019-02-17T23:19:17.032Z,64.80
2019-02-17T23:21:43.990Z,64.50
2019-02-17T23:24:11.097Z,64.40
2019-02-17T23:26:38.076Z,64.30
2019-02-17T23:29:05.041Z,64.40
2019-02-17T23:31:32.017Z,64.60
2019-02-17T23:33:59.009Z,65.60
2019-02-17T23:36:25.952Z,65.40
2019-02-17T23:38:53.219Z,65.80
2019-02-17T23:41:20.161Z,66.10
2019-02-17T23:43:47.106Z,66.40
2019-02-17T23:46:14.076Z,66.90
2019-02-17T23:48:41.023Z,66.40
2019-02-17T23:51:07.999Z,67.90
2019-02-17T23:53:35.004Z,68.10
2019-02-17T23:56:01.955Z,68.60
2019-02-17T23:58:28.881Z,69.00
